KPLN/PLN METAR and TAF weather

Enter ICAO airport designator
Station Type Date Time Source
KPLN METAR 2022/01/23 11:54 UTC NOAA

KPLN 231154Z AUTO 35003KT 10SM SCT036 M21/M22 A2993 RMK AO2 SLP155 60000 70011 I1001 I6001 T12061222 11106 21206 51010 $


Station Type Date Time Source
KPLN Decoded METAR 2022/01/23 11:54 UTC NOAA

PELLSTON REGIONAL AIRPORT, MI, United States (KPLN) 45-34N 084-48W 217M
Jan 23, 2022 - 06:54 AM EST / 2022.01.23 1154 UTC
Wind: from the N (350 degrees) at 3 MPH (3 KT):0
Visibility: 10 mile(s):0
Sky conditions: partly cloudy
Temperature: -5.1 F (-20.6 C)
Dew Point: -8.0 F (-22.2 C)
Relative Humidity: 86%
Pressure (altimeter): 29.93 in. Hg (1013 hPa)
Pressure tendency: 0.03 inches (1.0 hPa) higher than three hours ago
ob: KPLN 231154Z AUTO 35003KT 10SM SCT036 M21/M22 A2993 RMK AO2 SLP155 60000 70011 I1001 I6001 T12061222 11106 21206 51010
cycle: 12

Station Type Date Time Source
KPLN TAF 2022/01/23 12:24 UTC NOAA

TAF KPLN 231122Z 2312/2412 VRB03KT P6SM BKN026
FM231800 28005KT P6SM -SHSN BKN070
FM240000 VRB04KT P6SM -SHSN BKN070
FM240300 00000KT P6SM -SHSN BKN040
FM240600 VRB04KT P6SM OVC045
FM240900 21005KT 2SM -SHSN OVC030

Example: see airport list